Lake Harbour, Canada
Current Conditions -  °F | °C
As of 9:00 AM on Sunday 25 Jan 2015 (Local Time) from CYFB Reporting Station
Ice Pellets Ice Pellets  
Wind Chill: -52°   Ceiling: Unl
Heat Index: -36°   Visibility: 25mi
Dew Point: -44°   Wind: 5mph
Humidity: 67%   Direction: 330°NNW
Pressure: 29.69"   Gusts: NA
Location:  62.85°N, 69.89°W
Report Text: CYFB 251400Z 33004KT 25SM IC FEW200 M38/M42 A2969 RMK CI1 SLP061
Loading
Personal Weather Stations






























Interactive Weather Map New forecast layout! Learn more

10-Day Weather Forecast

Advertisements
Track Severe Weather on mobile